sensor_id;sensor_type;location;lat;lon;timestamp;P1;durP1;ratioP1;P2;durP2;ratioP2
73331;SDS011;61560;33.718;73.040;2023-04-07T00:00:38;19.77;;;6.78;;
73331;SDS011;61560;33.718;73.040;2023-04-07T00:03:06;22.25;;;6.75;;
73331;SDS011;61560;33.718;73.040;2023-04-07T00:05:33;14.68;;;6.15;;
73331;SDS011;61560;33.718;73.040;2023-04-07T00:08:00;17.33;;;6.90;;
73331;SDS011;61560;33.718;73.040;2023-04-07T00:10:27;15.70;;;6.20;;
73331;SDS011;61560;33.718;73.040;2023-04-07T00:12:53;14.48;;;6.88;;
73331;SDS011;61560;33.718;73.040;2023-04-07T00:15:20;15.77;;;6.90;;
73331;SDS011;61560;33.718;73.040;2023-04-07T00:28:10;12.30;;;6.53;;
73331;SDS011;61560;33.718;73.040;2023-04-07T00:30:37;16.80;;;6.75;;
73331;SDS011;61560;33.718;73.040;2023-04-07T00:33:03;16.33;;;6.53;;
73331;SDS011;61560;33.718;73.040;2023-04-07T00:35:30;27.25;;;7.03;;
73331;SDS011;61560;33.718;73.040;2023-04-07T00:37:56;19.55;;;7.18;;
73331;SDS011;61560;33.718;73.040;2023-04-07T00:40:23;15.00;;;5.85;;
73331;SDS011;61560;33.718;73.040;2023-04-07T00:42:50;16.55;;;6.22;;
73331;SDS011;61560;33.718;73.040;2023-04-07T00:45:17;15.88;;;6.63;;
73331;SDS011;61560;33.718;73.040;2023-04-07T00:47:44;13.85;;;6.63;;
73331;SDS011;61560;33.718;73.040;2023-04-07T00:50:10;14.10;;;5.97;;
73331;SDS011;61560;33.718;73.040;2023-04-07T00:52:37;18.75;;;6.30;;
73331;SDS011;61560;33.718;73.040;2023-04-07T00:55:04;18.75;;;6.95;;
73331;SDS011;61560;33.718;73.040;2023-04-07T00:57:31;16.63;;;7.18;;
73331;SDS011;61560;33.718;73.040;2023-04-07T00:59:58;14.32;;;6.72;;
73331;SDS011;61560;33.718;73.040;2023-04-07T01:05:04;17.15;;;7.15;;
73331;SDS011;61560;33.718;73.040;2023-04-07T01:10:09;20.85;;;7.10;;
73331;SDS011;61560;33.718;73.040;2023-04-07T01:12:53;18.65;;;8.00;;
73331;SDS011;61560;33.718;73.040;2023-04-07T01:15:24;16.92;;;7.70;;
73331;SDS011;61560;33.718;73.040;2023-04-07T01:17:58;16.70;;;7.75;;
73331;SDS011;61560;33.718;73.040;2023-04-07T01:20:26;26.17;;;8.57;;
73331;SDS011;61560;33.718;73.040;2023-04-07T01:23:00;25.63;;;9.48;;
73331;SDS011;61560;33.718;73.040;2023-04-07T01:28:14;23.52;;;8.25;;
73331;SDS011;61560;33.718;73.040;2023-04-07T01:30:48;21.60;;;8.38;;
73331;SDS011;61560;33.718;73.040;2023-04-07T01:33:17;21.85;;;7.80;;
73331;SDS011;61560;33.718;73.040;2023-04-07T01:35:45;16.20;;;7.80;;
73331;SDS011;61560;33.718;73.040;2023-04-07T01:38:13;18.33;;;8.57;;
73331;SDS011;61560;33.718;73.040;2023-04-07T01:40:40;25.95;;;9.20;;
73331;SDS011;61560;33.718;73.040;2023-04-07T01:43:08;23.75;;;10.15;;
73331;SDS011;61560;33.718;73.040;2023-04-07T01:45:36;29.73;;;9.57;;
73331;SDS011;61560;33.718;73.040;2023-04-07T01:48:04;23.05;;;9.48;;
73331;SDS011;61560;33.718;73.040;2023-04-07T01:50:32;23.02;;;10.15;;
73331;SDS011;61560;33.718;73.040;2023-04-07T01:52:59;24.33;;;9.27;;
73331;SDS011;61560;33.718;73.040;2023-04-07T01:55:25;25.10;;;9.30;;
73331;SDS011;61560;33.718;73.040;2023-04-07T01:58:04;23.52;;;10.48;;
73331;SDS011;61560;33.718;73.040;2023-04-07T02:00:32;30.93;;;10.60;;
73331;SDS011;61560;33.718;73.040;2023-04-07T02:03:06;27.25;;;10.45;;
73331;SDS011;61560;33.718;73.040;2023-04-07T02:05:35;25.02;;;11.27;;
73331;SDS011;61560;33.718;73.040;2023-04-07T02:08:04;26.65;;;11.55;;
73331;SDS011;61560;33.718;73.040;2023-04-07T02:10:34;24.85;;;11.77;;
73331;SDS011;61560;33.718;73.040;2023-04-07T02:13:02;30.15;;;10.70;;
73331;SDS011;61560;33.718;73.040;2023-04-07T02:15:30;25.45;;;10.85;;
73331;SDS011;61560;33.718;73.040;2023-04-07T02:17:59;33.60;;;13.02;;
73331;SDS011;61560;33.718;73.040;2023-04-07T02:20:27;41.80;;;15.35;;
73331;SDS011;61560;33.718;73.040;2023-04-07T02:22:54;40.10;;;16.85;;
73331;SDS011;61560;33.718;73.040;2023-04-07T02:25:21;46.58;;;16.33;;
73331;SDS011;61560;33.718;73.040;2023-04-07T02:27:48;37.50;;;15.40;;
73331;SDS011;61560;33.718;73.040;2023-04-07T02:30:15;43.65;;;15.95;;
73331;SDS011;61560;33.718;73.040;2023-04-07T02:32:41;41.22;;;16.65;;
73331;SDS011;61560;33.718;73.040;2023-04-07T02:35:09;43.33;;;14.90;;
73331;SDS011;61560;33.718;73.040;2023-04-07T02:37:35;34.38;;;13.73;;
73331;SDS011;61560;33.718;73.040;2023-04-07T02:40:02;33.50;;;13.52;;
73331;SDS011;61560;33.718;73.040;2023-04-07T02:42:29;40.17;;;14.27;;
73331;SDS011;61560;33.718;73.040;2023-04-07T02:44:56;26.75;;;12.63;;
73331;SDS011;61560;33.718;73.040;2023-04-07T02:47:22;28.48;;;12.77;;
73331;SDS011;61560;33.718;73.040;2023-04-07T02:49:49;32.92;;;13.73;;
73331;SDS011;61560;33.718;73.040;2023-04-07T02:52:15;26.65;;;12.82;;
73331;SDS011;61560;33.718;73.040;2023-04-07T02:54:42;24.42;;;12.05;;
73331;SDS011;61560;33.718;73.040;2023-04-07T02:57:10;36.13;;;13.57;;
73331;SDS011;61560;33.718;73.040;2023-04-07T02:59:40;31.73;;;13.40;;
73331;SDS011;61560;33.718;73.040;2023-04-07T03:02:08;26.30;;;13.95;;
73331;SDS011;61560;33.718;73.040;2023-04-07T03:04:37;42.50;;;15.07;;
73331;SDS011;61560;33.718;73.040;2023-04-07T03:07:04;42.42;;;15.68;;
73331;SDS011;61560;33.718;73.040;2023-04-07T03:09:32;32.75;;;14.20;;
73331;SDS011;61560;33.718;73.040;2023-04-07T03:11:58;36.17;;;13.98;;
73331;SDS011;61560;33.718;73.040;2023-04-07T03:14:30;35.72;;;14.25;;
73331;SDS011;61560;33.718;73.040;2023-04-07T03:16:56;32.03;;;13.00;;
73331;SDS011;61560;33.718;73.040;2023-04-07T03:19:24;38.38;;;14.63;;
73331;SDS011;61560;33.718;73.040;2023-04-07T03:21:51;41.20;;;14.57;;
73331;SDS011;61560;33.718;73.040;2023-04-07T03:24:17;37.95;;;14.50;;
73331;SDS011;61560;33.718;73.040;2023-04-07T03:26:45;44.63;;;13.98;;
73331;SDS011;61560;33.718;73.040;2023-04-07T03:29:21;33.92;;;13.25;;
73331;SDS011;61560;33.718;73.040;2023-04-07T03:31:47;32.72;;;13.85;;
73331;SDS011;61560;33.718;73.040;2023-04-07T03:34:17;35.70;;;13.07;;
73331;SDS011;61560;33.718;73.040;2023-04-07T03:36:44;30.60;;;13.30;;
73331;SDS011;61560;33.718;73.040;2023-04-07T03:39:10;26.17;;;11.77;;
73331;SDS011;61560;33.718;73.040;2023-04-07T03:41:38;28.30;;;13.07;;
73331;SDS011;61560;33.718;73.040;2023-04-07T03:44:04;33.10;;;13.80;;
73331;SDS011;61560;33.718;73.040;2023-04-07T03:46:34;31.60;;;14.05;;
73331;SDS011;61560;33.718;73.040;2023-04-07T03:49:01;31.33;;;14.70;;
73331;SDS011;61560;33.718;73.040;2023-04-07T03:51:30;38.22;;;13.77;;
73331;SDS011;61560;33.718;73.040;2023-04-07T03:54:01;26.40;;;13.55;;
73331;SDS011;61560;33.718;73.040;2023-04-07T03:56:32;28.85;;;12.35;;
73331;SDS011;61560;33.718;73.040;2023-04-07T03:58:59;30.13;;;13.88;;
73331;SDS011;61560;33.718;73.040;2023-04-07T04:01:33;31.77;;;13.70;;
73331;SDS011;61560;33.718;73.040;2023-04-07T04:04:14;30.40;;;13.48;;
73331;SDS011;61560;33.718;73.040;2023-04-07T04:06:41;33.03;;;14.65;;
73331;SDS011;61560;33.718;73.040;2023-04-07T04:09:19;40.60;;;15.60;;
73331;SDS011;61560;33.718;73.040;2023-04-07T04:11:47;37.92;;;14.95;;
73331;SDS011;61560;33.718;73.040;2023-04-07T04:14:15;33.28;;;15.13;;
73331;SDS011;61560;33.718;73.040;2023-04-07T04:16:47;38.65;;;14.57;;
73331;SDS011;61560;33.718;73.040;2023-04-07T04:19:33;26.73;;;13.32;;
73331;SDS011;61560;33.718;73.040;2023-04-07T04:42:55;40.75;;;19.25;;
73331;SDS011;61560;33.718;73.040;2023-04-07T04:45:24;56.03;;;22.98;;
73331;SDS011;61560;33.718;73.040;2023-04-07T04:47:51;60.72;;;24.67;;
73331;SDS011;61560;33.718;73.040;2023-04-07T04:50:17;50.22;;;23.95;;
73331;SDS011;61560;33.718;73.040;2023-04-07T04:52:45;51.05;;;23.67;;
73331;SDS011;61560;33.718;73.040;2023-04-07T04:55:18;49.17;;;23.88;;
73331;SDS011;61560;33.718;73.040;2023-04-07T04:57:45;52.50;;;24.55;;
73331;SDS011;61560;33.718;73.040;2023-04-07T05:00:16;57.75;;;24.83;;
73331;SDS011;61560;33.718;73.040;2023-04-07T05:02:44;48.65;;;24.95;;
73331;SDS011;61560;33.718;73.040;2023-04-07T05:05:11;48.17;;;24.75;;
73331;SDS011;61560;33.718;73.040;2023-04-07T05:07:39;47.17;;;23.38;;
73331;SDS011;61560;33.718;73.040;2023-04-07T05:10:07;43.38;;;24.20;;
73331;SDS011;61560;33.718;73.040;2023-04-07T05:12:36;49.87;;;22.80;;
73331;SDS011;61560;33.718;73.040;2023-04-07T05:15:02;45.97;;;24.00;;
73331;SDS011;61560;33.718;73.040;2023-04-07T05:17:30;44.30;;;23.70;;
73331;SDS011;61560;33.718;73.040;2023-04-07T05:19:59;43.10;;;22.45;;
73331;SDS011;61560;33.718;73.040;2023-04-07T05:22:34;43.65;;;24.05;;
73331;SDS011;61560;33.718;73.040;2023-04-07T05:25:03;50.25;;;23.98;;
73331;SDS011;61560;33.718;73.040;2023-04-07T05:27:29;41.40;;;22.77;;
73331;SDS011;61560;33.718;73.040;2023-04-07T05:30:00;36.22;;;20.40;;
73331;SDS011;61560;33.718;73.040;2023-04-07T05:32:31;52.97;;;23.08;;
73331;SDS011;61560;33.718;73.040;2023-04-07T05:35:02;39.70;;;21.30;;
73331;SDS011;61560;33.718;73.040;2023-04-07T05:37:33;39.53;;;22.63;;
73331;SDS011;61560;33.718;73.040;2023-04-07T05:40:02;41.70;;;21.90;;
73331;SDS011;61560;33.718;73.040;2023-04-07T05:42:30;41.28;;;22.40;;
73331;SDS011;61560;33.718;73.040;2023-04-07T05:44:57;36.08;;;20.30;;
73331;SDS011;61560;33.718;73.040;2023-04-07T05:47:25;39.22;;;22.20;;
73331;SDS011;61560;33.718;73.040;2023-04-07T05:49:51;45.35;;;21.80;;
73331;SDS011;61560;33.718;73.040;2023-04-07T05:52:18;44.78;;;22.77;;
73331;SDS011;61560;33.718;73.040;2023-04-07T05:54:50;46.38;;;20.80;;
73331;SDS011;61560;33.718;73.040;2023-04-07T05:57:16;57.70;;;21.73;;
73331;SDS011;61560;33.718;73.040;2023-04-07T05:59:44;36.50;;;21.40;;
73331;SDS011;61560;33.718;73.040;2023-04-07T06:02:12;41.45;;;20.10;;
73331;SDS011;61560;33.718;73.040;2023-04-07T06:04:38;43.13;;;19.10;;
73331;SDS011;61560;33.718;73.040;2023-04-07T06:07:07;34.00;;;17.27;;
73331;SDS011;61560;33.718;73.040;2023-04-07T06:09:33;34.22;;;17.45;;
73331;SDS011;61560;33.718;73.040;2023-04-07T06:12:00;33.38;;;16.55;;
73331;SDS011;61560;33.718;73.040;2023-04-07T06:14:31;33.15;;;15.95;;
73331;SDS011;61560;33.718;73.040;2023-04-07T06:16:59;26.77;;;13.93;;
73331;SDS011;61560;33.718;73.040;2023-04-07T06:19:25;23.65;;;12.55;;
73331;SDS011;61560;33.718;73.040;2023-04-07T06:21:54;20.67;;;10.27;;
73331;SDS011;61560;33.718;73.040;2023-04-07T06:24:21;18.45;;;9.38;;
73331;SDS011;61560;33.718;73.040;2023-04-07T06:26:53;18.58;;;9.07;;
73331;SDS011;61560;33.718;73.040;2023-04-07T06:29:20;22.00;;;8.52;;
73331;SDS011;61560;33.718;73.040;2023-04-07T06:31:46;10.90;;;5.70;;
73331;SDS011;61560;33.718;73.040;2023-04-07T06:34:12;12.90;;;4.57;;
73331;SDS011;61560;33.718;73.040;2023-04-07T06:36:38;9.65;;;4.45;;
73331;SDS011;61560;33.718;73.040;2023-04-07T06:39:05;13.48;;;6.60;;
73331;SDS011;61560;33.718;73.040;2023-04-07T06:41:31;10.00;;;5.18;;
73331;SDS011;61560;33.718;73.040;2023-04-07T06:43:57;12.02;;;5.22;;
73331;SDS011;61560;33.718;73.040;2023-04-07T06:46:23;8.02;;;4.82;;
73331;SDS011;61560;33.718;73.040;2023-04-07T06:48:51;8.30;;;4.60;;
73331;SDS011;61560;33.718;73.040;2023-04-07T06:51:17;12.27;;;4.75;;
73331;SDS011;61560;33.718;73.040;2023-04-07T06:53:44;10.90;;;5.60;;
73331;SDS011;61560;33.718;73.040;2023-04-07T06:56:11;8.65;;;5.43;;
73331;SDS011;61560;33.718;73.040;2023-04-07T06:58:38;15.27;;;6.65;;
73331;SDS011;61560;33.718;73.040;2023-04-07T07:01:05;15.45;;;6.75;;
73331;SDS011;61560;33.718;73.040;2023-04-07T07:03:31;8.57;;;4.38;;
73331;SDS011;61560;33.718;73.040;2023-04-07T07:05:58;8.88;;;3.28;;
73331;SDS011;61560;33.718;73.040;2023-04-07T07:08:25;8.23;;;4.00;;
73331;SDS011;61560;33.718;73.040;2023-04-07T07:10:51;11.38;;;4.30;;
73331;SDS011;61560;33.718;73.040;2023-04-07T07:13:18;5.88;;;3.85;;
73331;SDS011;61560;33.718;73.040;2023-04-07T07:15:44;10.73;;;4.03;;
73331;SDS011;61560;33.718;73.040;2023-04-07T07:18:11;7.07;;;3.90;;
73331;SDS011;61560;33.718;73.040;2023-04-07T07:20:37;9.00;;;4.15;;
73331;SDS011;61560;33.718;73.040;2023-04-07T07:23:03;7.72;;;3.70;;
73331;SDS011;61560;33.718;73.040;2023-04-07T07:25:29;6.60;;;3.45;;
73331;SDS011;61560;33.718;73.040;2023-04-07T07:27:56;9.43;;;3.42;;
73331;SDS011;61560;33.718;73.040;2023-04-07T07:30:24;7.20;;;3.47;;
73331;SDS011;61560;33.718;73.040;2023-04-07T07:32:50;8.02;;;3.42;;
73331;SDS011;61560;33.718;73.040;2023-04-07T07:35:18;7.25;;;3.60;;
73331;SDS011;61560;33.718;73.040;2023-04-07T07:37:44;3.63;;;3.08;;
73331;SDS011;61560;33.718;73.040;2023-04-07T07:40:11;6.25;;;3.17;;
73331;SDS011;61560;33.718;73.040;2023-04-07T07:42:37;5.72;;;2.88;;
73331;SDS011;61560;33.718;73.040;2023-04-07T07:45:03;6.93;;;3.05;;
73331;SDS011;61560;33.718;73.040;2023-04-07T07:47:30;10.30;;;3.22;;
73331;SDS011;61560;33.718;73.040;2023-04-07T07:49:56;4.95;;;3.08;;
73331;SDS011;61560;33.718;73.040;2023-04-07T07:52:23;6.00;;;3.53;;
73331;SDS011;61560;33.718;73.040;2023-04-07T07:54:50;4.40;;;2.53;;
73331;SDS011;61560;33.718;73.040;2023-04-07T07:57:16;3.13;;;2.65;;
73331;SDS011;61560;33.718;73.040;2023-04-07T07:59:42;9.35;;;3.00;;
73331;SDS011;61560;33.718;73.040;2023-04-07T08:02:11;6.00;;;2.85;;
73331;SDS011;61560;33.718;73.040;2023-04-07T08:04:38;6.53;;;2.80;;
73331;SDS011;61560;33.718;73.040;2023-04-07T08:07:04;6.78;;;3.20;;
73331;SDS011;61560;33.718;73.040;2023-04-07T08:09:31;7.82;;;3.35;;
73331;SDS011;61560;33.718;73.040;2023-04-07T08:19:27;5.32;;;3.25;;
73331;SDS011;61560;33.718;73.040;2023-04-07T08:21:54;9.45;;;3.60;;
73331;SDS011;61560;33.718;73.040;2023-04-07T08:24:21;7.43;;;4.00;;
73331;SDS011;61560;33.718;73.040;2023-04-07T08:26:47;16.55;;;4.13;;
73331;SDS011;61560;33.718;73.040;2023-04-07T08:29:14;7.70;;;3.72;;
73331;SDS011;61560;33.718;73.040;2023-04-07T08:31:41;7.40;;;3.60;;
73331;SDS011;61560;33.718;73.040;2023-04-07T08:34:07;9.48;;;3.58;;
73331;SDS011;61560;33.718;73.040;2023-04-07T08:36:34;5.18;;;3.58;;
73331;SDS011;61560;33.718;73.040;2023-04-07T08:39:00;7.25;;;4.07;;
73331;SDS011;61560;33.718;73.040;2023-04-07T08:41:38;5.05;;;3.50;;
73331;SDS011;61560;33.718;73.040;2023-04-07T08:44:07;8.40;;;4.30;;
73331;SDS011;61560;33.718;73.040;2023-04-07T08:46:38;7.68;;;3.92;;
73331;SDS011;61560;33.718;73.040;2023-04-07T08:49:09;7.22;;;4.20;;
73331;SDS011;61560;33.718;73.040;2023-04-07T08:51:42;8.57;;;4.00;;
73331;SDS011;61560;33.718;73.040;2023-04-07T08:54:15;6.95;;;3.88;;
73331;SDS011;61560;33.718;73.040;2023-04-07T08:56:47;8.55;;;4.00;;
73331;SDS011;61560;33.718;73.040;2023-04-07T08:59:14;5.57;;;3.85;;
73331;SDS011;61560;33.718;73.040;2023-04-07T09:01:43;6.90;;;4.03;;
73331;SDS011;61560;33.718;73.040;2023-04-07T09:04:11;5.70;;;4.07;;
73331;SDS011;61560;33.718;73.040;2023-04-07T09:06:42;7.05;;;3.70;;
73331;SDS011;61560;33.718;73.040;2023-04-07T09:09:09;7.88;;;4.22;;
73331;SDS011;61560;33.718;73.040;2023-04-07T09:11:37;8.65;;;3.83;;
73331;SDS011;61560;33.718;73.040;2023-04-07T09:14:05;6.82;;;3.95;;
73331;SDS011;61560;33.718;73.040;2023-04-07T09:16:32;7.00;;;3.75;;
73331;SDS011;61560;33.718;73.040;2023-04-07T09:18:59;5.22;;;4.30;;
73331;SDS011;61560;33.718;73.040;2023-04-07T09:21:25;12.38;;;4.13;;
73331;SDS011;61560;33.718;73.040;2023-04-07T09:24:24;7.05;;;3.58;;
73331;SDS011;61560;33.718;73.040;2023-04-07T09:27:35;6.22;;;4.00;;
73331;SDS011;61560;33.718;73.040;2023-04-07T09:29:46;6.85;;;4.20;;
73331;SDS011;61560;33.718;73.040;2023-04-07T09:32:20;7.70;;;4.28;;
73331;SDS011;61560;33.718;73.040;2023-04-07T09:35:09;6.45;;;4.60;;
73331;SDS011;61560;33.718;73.040;2023-04-07T09:37:36;9.60;;;4.40;;
73331;SDS011;61560;33.718;73.040;2023-04-07T09:40:03;7.47;;;4.80;;
73331;SDS011;61560;33.718;73.040;2023-04-07T09:42:31;9.65;;;5.07;;
73331;SDS011;61560;33.718;73.040;2023-04-07T09:45:01;13.63;;;4.88;;
73331;SDS011;61560;33.718;73.040;2023-04-07T09:47:28;16.13;;;8.32;;
73331;SDS011;61560;33.718;73.040;2023-04-07T09:49:56;21.30;;;9.30;;
73331;SDS011;61560;33.718;73.040;2023-04-07T09:52:25;11.55;;;7.43;;
73331;SDS011;61560;33.718;73.040;2023-04-07T09:55:14;13.35;;;7.40;;
73331;SDS011;61560;33.718;73.040;2023-04-07T09:57:41;11.57;;;6.88;;
73331;SDS011;61560;33.718;73.040;2023-04-07T10:00:10;14.18;;;7.28;;
73331;SDS011;61560;33.718;73.040;2023-04-07T10:02:38;13.40;;;6.80;;
73331;SDS011;61560;33.718;73.040;2023-04-07T10:05:06;17.90;;;7.05;;
73331;SDS011;61560;33.718;73.040;2023-04-07T10:07:33;13.75;;;6.95;;
73331;SDS011;61560;33.718;73.040;2023-04-07T10:10:01;17.23;;;8.23;;
73331;SDS011;61560;33.718;73.040;2023-04-07T10:12:28;22.45;;;9.52;;
73331;SDS011;61560;33.718;73.040;2023-04-07T10:14:58;20.73;;;9.98;;
73331;SDS011;61560;33.718;73.040;2023-04-07T10:17:26;22.98;;;9.75;;
73331;SDS011;61560;33.718;73.040;2023-04-07T10:19:55;20.33;;;9.30;;
73331;SDS011;61560;33.718;73.040;2023-04-07T10:22:24;21.05;;;9.32;;
73331;SDS011;61560;33.718;73.040;2023-04-07T10:24:55;22.85;;;9.27;;
73331;SDS011;61560;33.718;73.040;2023-04-07T10:27:30;21.20;;;9.52;;
73331;SDS011;61560;33.718;73.040;2023-04-07T10:29:59;17.33;;;8.52;;
73331;SDS011;61560;33.718;73.040;2023-04-07T10:32:28;12.35;;;6.97;;
73331;SDS011;61560;33.718;73.040;2023-04-07T10:34:56;13.65;;;6.20;;
73331;SDS011;61560;33.718;73.040;2023-04-07T10:37:24;10.90;;;5.53;;
73331;SDS011;61560;33.718;73.040;2023-04-07T10:40:38;10.73;;;5.90;;
73331;SDS011;61560;33.718;73.040;2023-04-07T10:42:43;9.95;;;5.78;;
73331;SDS011;61560;33.718;73.040;2023-04-07T10:45:11;11.95;;;5.57;;
73331;SDS011;61560;33.718;73.040;2023-04-07T10:48:24;7.68;;;5.20;;
73331;SDS011;61560;33.718;73.040;2023-04-07T10:50:28;10.13;;;5.07;;
73331;SDS011;61560;33.718;73.040;2023-04-07T10:53:05;12.40;;;5.70;;
73331;SDS011;61560;33.718;73.040;2023-04-07T10:55:35;10.55;;;5.43;;
73331;SDS011;61560;33.718;73.040;2023-04-07T10:58:25;11.15;;;5.43;;
73331;SDS011;61560;33.718;73.040;2023-04-07T11:03:22;7.85;;;4.90;;
73331;SDS011;61560;33.718;73.040;2023-04-07T11:05:50;8.57;;;5.25;;
73331;SDS011;61560;33.718;73.040;2023-04-07T11:08:35;7.78;;;4.63;;
73331;SDS011;61560;33.718;73.040;2023-04-07T11:11:03;10.32;;;5.20;;
73331;SDS011;61560;33.718;73.040;2023-04-07T11:13:40;11.97;;;5.43;;
73331;SDS011;61560;33.718;73.040;2023-04-07T11:16:07;12.10;;;5.80;;
73331;SDS011;61560;33.718;73.040;2023-04-07T11:18:34;9.65;;;5.28;;
73331;SDS011;61560;33.718;73.040;2023-04-07T11:21:05;10.90;;;4.72;;
73331;SDS011;61560;33.718;73.040;2023-04-07T11:23:39;7.20;;;4.47;;
73331;SDS011;61560;33.718;73.040;2023-04-07T11:26:11;9.13;;;5.15;;
73331;SDS011;61560;33.718;73.040;2023-04-07T11:28:46;9.00;;;5.10;;
73331;SDS011;61560;33.718;73.040;2023-04-07T11:31:27;13.35;;;5.28;;
73331;SDS011;61560;33.718;73.040;2023-04-07T11:33:56;8.00;;;4.38;;
73331;SDS011;61560;33.718;73.040;2023-04-07T11:38:53;7.20;;;4.47;;
73331;SDS011;61560;33.718;73.040;2023-04-07T11:41:22;6.15;;;4.32;;
73331;SDS011;61560;33.718;73.040;2023-04-07T11:44:04;7.18;;;4.80;;
73331;SDS011;61560;33.718;73.040;2023-04-07T11:46:30;8.32;;;4.38;;
73331;SDS011;61560;33.718;73.040;2023-04-07T11:49:07;6.35;;;3.65;;
73331;SDS011;61560;33.718;73.040;2023-04-07T11:51:38;6.13;;;4.00;;
73331;SDS011;61560;33.718;73.040;2023-04-07T11:54:05;6.45;;;3.95;;
73331;SDS011;61560;33.718;73.040;2023-04-07T11:56:45;6.00;;;3.95;;
73331;SDS011;61560;33.718;73.040;2023-04-07T11:59:23;10.52;;;5.05;;
73331;SDS011;61560;33.718;73.040;2023-04-07T12:01:51;13.50;;;5.20;;
73331;SDS011;61560;33.718;73.040;2023-04-07T12:04:18;10.85;;;4.43;;
73331;SDS011;61560;33.718;73.040;2023-04-07T12:06:45;5.43;;;3.92;;
73331;SDS011;61560;33.718;73.040;2023-04-07T12:09:31;10.20;;;4.30;;
73331;SDS011;61560;33.718;73.040;2023-04-07T12:12:04;11.00;;;4.32;;
73331;SDS011;61560;33.718;73.040;2023-04-07T12:14:33;6.50;;;4.00;;
73331;SDS011;61560;33.718;73.040;2023-04-07T12:17:00;8.93;;;4.43;;
73331;SDS011;61560;33.718;73.040;2023-04-07T12:19:29;6.15;;;4.30;;
73331;SDS011;61560;33.718;73.040;2023-04-07T12:22:00;8.85;;;4.55;;
73331;SDS011;61560;33.718;73.040;2023-04-07T12:24:27;8.40;;;4.25;;
73331;SDS011;61560;33.718;73.040;2023-04-07T12:26:53;7.28;;;4.07;;
73331;SDS011;61560;33.718;73.040;2023-04-07T12:29:20;10.85;;;4.43;;
73331;SDS011;61560;33.718;73.040;2023-04-07T12:31:47;6.95;;;4.20;;
73331;SDS011;61560;33.718;73.040;2023-04-07T12:34:14;10.68;;;4.72;;
73331;SDS011;61560;33.718;73.040;2023-04-07T12:36:40;8.65;;;4.43;;
73331;SDS011;61560;33.718;73.040;2023-04-07T12:39:07;8.98;;;4.30;;
73331;SDS011;61560;33.718;73.040;2023-04-07T12:41:34;10.23;;;4.50;;
73331;SDS011;61560;33.718;73.040;2023-04-07T12:44:00;8.63;;;5.03;;
73331;SDS011;61560;33.718;73.040;2023-04-07T12:46:27;10.48;;;4.80;;
73331;SDS011;61560;33.718;73.040;2023-04-07T12:48:54;8.93;;;4.25;;
73331;SDS011;61560;33.718;73.040;2023-04-07T12:51:20;9.68;;;4.50;;
73331;SDS011;61560;33.718;73.040;2023-04-07T12:53:47;8.57;;;4.60;;
73331;SDS011;61560;33.718;73.040;2023-04-07T12:56:19;8.23;;;4.20;;
73331;SDS011;61560;33.718;73.040;2023-04-07T12:58:47;9.30;;;4.63;;
73331;SDS011;61560;33.718;73.040;2023-04-07T13:01:13;10.80;;;4.28;;
73331;SDS011;61560;33.718;73.040;2023-04-07T13:03:41;6.93;;;4.10;;
73331;SDS011;61560;33.718;73.040;2023-04-07T13:06:07;11.32;;;4.45;;
73331;SDS011;61560;33.718;73.040;2023-04-07T13:08:35;7.18;;;4.40;;
73331;SDS011;61560;33.718;73.040;2023-04-07T13:11:02;8.07;;;4.55;;
73331;SDS011;61560;33.718;73.040;2023-04-07T13:13:29;9.40;;;4.75;;
73331;SDS011;61560;33.718;73.040;2023-04-07T13:15:56;9.02;;;5.18;;
73331;SDS011;61560;33.718;73.040;2023-04-07T13:18:22;8.40;;;4.78;;
73331;SDS011;61560;33.718;73.040;2023-04-07T13:20:50;8.35;;;4.68;;
73331;SDS011;61560;33.718;73.040;2023-04-07T13:23:16;12.30;;;5.00;;
73331;SDS011;61560;33.718;73.040;2023-04-07T13:25:46;8.88;;;4.72;;
73331;SDS011;61560;33.718;73.040;2023-04-07T13:28:13;8.82;;;5.00;;
73331;SDS011;61560;33.718;73.040;2023-04-07T13:30:43;8.90;;;4.82;;
73331;SDS011;61560;33.718;73.040;2023-04-07T13:33:09;7.63;;;4.50;;
73331;SDS011;61560;33.718;73.040;2023-04-07T13:35:36;10.80;;;3.90;;
73331;SDS011;61560;33.718;73.040;2023-04-07T13:38:02;7.82;;;4.65;;
73331;SDS011;61560;33.718;73.040;2023-04-07T13:40:29;6.85;;;4.15;;
73331;SDS011;61560;33.718;73.040;2023-04-07T13:42:56;9.15;;;4.82;;
73331;SDS011;61560;33.718;73.040;2023-04-07T13:45:23;7.03;;;3.92;;
73331;SDS011;61560;33.718;73.040;2023-04-07T13:47:50;13.38;;;3.97;;
73331;SDS011;61560;33.718;73.040;2023-04-07T13:50:16;6.00;;;3.90;;
73331;SDS011;61560;33.718;73.040;2023-04-07T13:52:43;7.32;;;4.05;;
73331;SDS011;61560;33.718;73.040;2023-04-07T13:55:10;10.40;;;4.72;;
73331;SDS011;61560;33.718;73.040;2023-04-07T13:57:39;11.15;;;4.57;;
73331;SDS011;61560;33.718;73.040;2023-04-07T14:00:06;8.65;;;4.50;;
73331;SDS011;61560;33.718;73.040;2023-04-07T14:02:36;7.60;;;3.75;;
73331;SDS011;61560;33.718;73.040;2023-04-07T14:05:06;9.05;;;4.07;;
73331;SDS011;61560;33.718;73.040;2023-04-07T14:07:32;10.82;;;4.50;;
73331;SDS011;61560;33.718;73.040;2023-04-07T14:09:59;8.32;;;3.90;;
73331;SDS011;61560;33.718;73.040;2023-04-07T14:12:25;12.32;;;4.28;;
73331;SDS011;61560;33.718;73.040;2023-04-07T14:15:04;8.00;;;4.50;;
73331;SDS011;61560;33.718;73.040;2023-04-07T14:17:34;9.32;;;4.35;;
73331;SDS011;61560;33.718;73.040;2023-04-07T14:20:02;7.85;;;4.63;;
73331;SDS011;61560;33.718;73.040;2023-04-07T14:22:28;7.07;;;4.15;;
73331;SDS011;61560;33.718;73.040;2023-04-07T14:24:55;8.63;;;4.07;;
73331;SDS011;61560;33.718;73.040;2023-04-07T14:27:22;12.65;;;4.00;;
73331;SDS011;61560;33.718;73.040;2023-04-07T14:29:48;10.02;;;4.10;;
73331;SDS011;61560;33.718;73.040;2023-04-07T14:32:15;7.13;;;4.10;;
73331;SDS011;61560;33.718;73.040;2023-04-07T14:34:42;7.95;;;4.55;;
73331;SDS011;61560;33.718;73.040;2023-04-07T14:37:08;7.88;;;3.47;;
73331;SDS011;61560;33.718;73.040;2023-04-07T14:39:36;9.02;;;4.35;;
73331;SDS011;61560;33.718;73.040;2023-04-07T14:42:03;8.15;;;4.50;;
73331;SDS011;61560;33.718;73.040;2023-04-07T14:44:33;7.93;;;4.78;;
73331;SDS011;61560;33.718;73.040;2023-04-07T14:47:11;9.55;;;4.38;;
73331;SDS011;61560;33.718;73.040;2023-04-07T14:49:38;7.88;;;4.15;;
73331;SDS011;61560;33.718;73.040;2023-04-07T14:52:05;7.88;;;4.40;;
73331;SDS011;61560;33.718;73.040;2023-04-07T14:54:32;7.47;;;4.45;;
73331;SDS011;61560;33.718;73.040;2023-04-07T14:56:59;9.93;;;4.78;;
73331;SDS011;61560;33.718;73.040;2023-04-07T14:59:25;7.72;;;4.32;;
73331;SDS011;61560;33.718;73.040;2023-04-07T15:01:53;8.45;;;4.35;;
73331;SDS011;61560;33.718;73.040;2023-04-07T15:04:20;11.70;;;4.18;;
73331;SDS011;61560;33.718;73.040;2023-04-07T15:06:46;12.68;;;4.70;;
73331;SDS011;61560;33.718;73.040;2023-04-07T15:09:13;8.43;;;4.50;;
73331;SDS011;61560;33.718;73.040;2023-04-07T15:11:40;8.73;;;4.35;;
73331;SDS011;61560;33.718;73.040;2023-04-07T15:14:07;10.02;;;4.85;;
73331;SDS011;61560;33.718;73.040;2023-04-07T15:16:33;10.68;;;5.03;;
73331;SDS011;61560;33.718;73.040;2023-04-07T15:19:00;9.40;;;4.72;;
73331;SDS011;61560;33.718;73.040;2023-04-07T15:21:26;12.57;;;4.70;;
73331;SDS011;61560;33.718;73.040;2023-04-07T15:23:53;6.97;;;4.15;;